createdAt,value
2023-05-24T00:01:49.898Z,16.58
2023-05-24T00:03:52.632Z,16.58
2023-05-24T00:05:55.894Z,16.57
2023-05-24T00:07:59.180Z,16.47
2023-05-24T00:10:01.757Z,16.49
2023-05-24T00:12:05.038Z,16.50
2023-05-24T00:14:09.061Z,16.51
2023-05-24T00:16:11.734Z,16.51
2023-05-24T00:18:14.341Z,16.49
2023-05-24T00:20:17.281Z,16.46
2023-05-24T00:22:21.122Z,16.46
2023-05-24T00:24:23.759Z,16.45
2023-05-24T00:26:26.745Z,16.44
2023-05-24T00:28:29.391Z,16.43
2023-05-24T00:30:33.371Z,16.42
2023-05-24T00:32:36.024Z,16.42
2023-05-24T00:34:38.668Z,16.41
2023-05-24T00:36:41.290Z,16.40
2023-05-24T00:38:43.979Z,16.39
2023-05-24T00:40:46.705Z,16.40
2023-05-24T00:42:49.310Z,16.39
2023-05-24T00:44:52.067Z,16.39
2023-05-24T00:46:56.311Z,16.39
2023-05-24T00:48:59.314Z,16.38
2023-05-24T00:51:02.161Z,16.38
2023-05-24T00:53:05.621Z,16.37
2023-05-24T00:55:09.697Z,16.35
2023-05-24T00:57:14.008Z,16.34
2023-05-24T00:59:16.887Z,16.31
2023-05-24T01:01:19.575Z,16.31
2023-05-24T01:03:23.987Z,16.30
2023-05-24T01:05:26.882Z,16.29
2023-05-24T01:07:39.029Z,16.26
2023-05-24T01:09:54.425Z,16.23
2023-05-24T01:12:12.403Z,16.23
2023-05-24T01:14:23.659Z,16.22
2023-05-24T01:16:33.841Z,16.20
2023-05-24T01:18:42.322Z,16.20
2023-05-24T01:20:46.612Z,16.18
2023-05-24T01:23:26.793Z,16.15
2023-05-24T01:25:51.915Z,16.13
2023-05-24T01:27:56.589Z,16.09
2023-05-24T01:30:00.265Z,16.10
2023-05-24T01:32:03.361Z,16.08
2023-05-24T01:34:06.083Z,16.08
2023-05-24T01:36:08.948Z,16.06
2023-05-24T01:38:12.199Z,15.95
2023-05-24T01:40:15.119Z,15.96
2023-05-24T01:42:25.971Z,15.93
2023-05-24T01:44:37.050Z,15.85
2023-05-24T01:46:40.228Z,15.84
2023-05-24T01:48:56.002Z,15.86
2023-05-24T01:51:00.434Z,15.86
2023-05-24T01:53:06.222Z,15.87
2023-05-24T01:55:10.627Z,15.89
2023-05-24T01:57:13.904Z,15.89
2023-05-24T01:59:17.060Z,15.90
2023-05-24T02:01:21.414Z,15.90
2023-05-24T02:03:24.090Z,15.92
2023-05-24T02:05:26.732Z,15.91
2023-05-24T02:07:29.375Z,15.92
2023-05-24T02:09:32.024Z,15.93
2023-05-24T02:11:34.859Z,15.93
2023-05-24T02:13:37.420Z,15.94
2023-05-24T02:15:41.850Z,15.92
2023-05-24T02:17:46.032Z,15.91
2023-05-24T02:19:48.731Z,15.90
2023-05-24T02:21:51.412Z,15.90
2023-05-24T02:23:54.012Z,15.87
2023-05-24T02:25:56.992Z,15.85
2023-05-24T02:28:00.485Z,15.84
2023-05-24T02:30:03.104Z,15.83
2023-05-24T02:32:06.304Z,15.82
2023-05-24T02:34:10.227Z,15.82
2023-05-24T02:36:12.853Z,15.81
2023-05-24T02:38:15.428Z,15.79
2023-05-24T02:40:18.285Z,15.77
2023-05-24T02:42:20.966Z,15.77
2023-05-24T02:44:23.675Z,15.75
2023-05-24T02:46:26.375Z,15.74
2023-05-24T02:48:28.968Z,15.74
2023-05-24T02:50:33.142Z,15.71
2023-05-24T02:52:36.271Z,15.70
2023-05-24T02:54:39.467Z,15.66
2023-05-24T02:56:42.067Z,15.64
2023-05-24T02:58:45.038Z,15.63
2023-05-24T03:00:47.964Z,15.62
2023-05-24T03:02:52.509Z,15.59
2023-05-24T03:04:55.404Z,15.58
2023-05-24T03:06:59.396Z,15.57
2023-05-24T03:09:02.261Z,15.56
2023-05-24T03:11:04.993Z,15.55
2023-05-24T03:13:07.557Z,15.53
2023-05-24T03:15:11.476Z,15.53
2023-05-24T03:17:14.083Z,15.51
2023-05-24T03:19:17.952Z,15.41
2023-05-24T03:21:21.025Z,15.39
2023-05-24T03:23:25.092Z,15.39
2023-05-24T03:25:27.907Z,15.39
2023-05-24T03:27:30.478Z,15.38
2023-05-24T03:29:33.053Z,15.37
2023-05-24T03:31:36.035Z,15.34
2023-05-24T03:33:38.647Z,15.32
2023-05-24T03:35:41.275Z,15.30
2023-05-24T03:37:43.881Z,15.31
2023-05-24T03:39:47.890Z,15.29
2023-05-24T03:41:50.522Z,15.28
2023-05-24T03:43:53.611Z,15.26
2023-05-24T03:45:56.334Z,15.24
2023-05-24T03:47:59.494Z,15.23
2023-05-24T03:50:02.129Z,15.22
2023-05-24T03:52:04.949Z,15.23
2023-05-24T03:54:07.552Z,15.13
2023-05-24T03:56:11.592Z,15.15
2023-05-24T03:58:14.168Z,15.12
2023-05-24T04:00:17.107Z,15.12
2023-05-24T04:02:19.705Z,15.13
2023-05-24T04:04:22.359Z,15.12
2023-05-24T04:06:29.125Z,15.12
2023-05-24T04:08:31.933Z,15.01
2023-05-24T04:10:34.562Z,15.00
2023-05-24T04:12:39.670Z,14.99
2023-05-24T04:14:42.295Z,14.98
2023-05-24T04:16:45.137Z,15.01
2023-05-24T04:18:47.925Z,15.00
2023-05-24T04:20:50.994Z,14.99
2023-05-24T04:22:53.778Z,15.01
2023-05-24T04:24:56.467Z,15.01
2023-05-24T04:26:59.283Z,15.00
2023-05-24T04:29:03.621Z,15.02
2023-05-24T04:31:07.211Z,15.02
2023-05-24T04:33:09.873Z,15.02
2023-05-24T04:35:13.240Z,15.03
2023-05-24T04:37:17.131Z,15.07
2023-05-24T04:39:19.960Z,15.03
2023-05-24T04:41:24.359Z,15.05
2023-05-24T04:43:27.392Z,15.06
2023-05-24T04:45:33.011Z,14.97
2023-05-24T04:47:35.647Z,14.99
2023-05-24T04:49:38.749Z,14.98
2023-05-24T04:51:41.400Z,14.98
2023-05-24T04:53:44.032Z,14.97
2023-05-24T04:55:46.732Z,14.98
2023-05-24T04:57:49.423Z,14.99
2023-05-24T04:59:51.991Z,14.99
2023-05-24T05:01:56.112Z,14.98
2023-05-24T05:03:59.170Z,14.98
2023-05-24T05:06:01.944Z,14.99
2023-05-24T05:08:04.771Z,14.99
2023-05-24T05:10:08.834Z,15.00
2023-05-24T05:12:11.434Z,15.00
2023-05-24T05:14:14.081Z,15.01
2023-05-24T05:16:16.794Z,15.01
2023-05-24T05:18:20.820Z,15.01
2023-05-24T05:20:23.989Z,15.01
2023-05-24T05:22:26.680Z,15.02
2023-05-24T05:24:29.281Z,15.02
2023-05-24T05:26:32.230Z,15.04
2023-05-24T05:28:34.836Z,15.03
2023-05-24T05:30:37.536Z,15.03
2023-05-24T05:32:40.657Z,15.04
2023-05-24T05:34:44.876Z,14.95
2023-05-24T05:36:47.528Z,14.95
2023-05-24T05:38:50.163Z,14.96
2023-05-24T05:40:52.839Z,14.96
2023-05-24T05:42:55.537Z,14.97
2023-05-24T05:44:58.361Z,14.97
2023-05-24T05:47:00.942Z,14.97
2023-05-24T05:49:03.515Z,14.97
2023-05-24T05:51:07.576Z,14.97
2023-05-24T05:53:10.178Z,14.96
2023-05-24T05:55:13.188Z,14.94
2023-05-24T05:57:19.651Z,14.93
2023-05-24T05:59:22.276Z,14.93
2023-05-24T06:01:24.894Z,14.93
2023-05-24T06:03:27.811Z,14.93
2023-05-24T06:05:30.544Z,14.91
2023-05-24T06:07:35.797Z,14.93
2023-05-24T06:09:38.463Z,14.94
2023-05-24T06:11:44.680Z,14.96
2023-05-24T06:13:47.329Z,14.97
2023-05-24T06:15:50.066Z,14.98
2023-05-24T06:17:52.850Z,14.98
2023-05-24T06:19:55.946Z,14.96
2023-05-24T06:21:58.696Z,14.93
2023-05-24T06:24:02.838Z,14.90
2023-05-24T06:26:05.649Z,14.91
2023-05-24T06:28:08.267Z,14.93
2023-05-24T06:30:11.491Z,14.91
2023-05-24T06:32:14.287Z,14.89
2023-05-24T06:34:17.698Z,14.83
2023-05-24T06:36:20.381Z,14.87
2023-05-24T06:38:22.988Z,14.85
2023-05-24T06:40:26.996Z,14.87
2023-05-24T06:42:29.652Z,14.90
2023-05-24T06:44:34.460Z,14.93
2023-05-24T06:46:37.335Z,14.96
2023-05-24T06:48:40.235Z,14.97
2023-05-24T06:50:43.700Z,14.99
2023-05-24T06:52:46.715Z,15.01
2023-05-24T06:54:50.318Z,15.03
2023-05-24T06:56:54.258Z,15.05
2023-05-24T06:58:57.039Z,15.06
2023-05-24T07:00:59.711Z,15.08
2023-05-24T07:03:02.438Z,15.09
2023-05-24T07:05:06.308Z,15.09
2023-05-24T07:07:12.712Z,15.10
2023-05-24T07:09:15.909Z,15.09
2023-05-24T07:11:18.629Z,15.11
2023-05-24T07:13:22.919Z,15.10
2023-05-24T07:15:25.559Z,15.10
2023-05-24T07:17:28.206Z,15.09
2023-05-24T07:19:30.842Z,15.10
2023-05-24T07:21:33.417Z,15.09
2023-05-24T07:23:37.007Z,15.09
2023-05-24T07:25:39.666Z,15.03
2023-05-24T07:27:42.288Z,15.05
2023-05-24T07:29:48.236Z,15.08
2023-05-24T07:31:51.166Z,15.10
2023-05-24T07:33:53.778Z,15.11
2023-05-24T07:35:56.357Z,15.12
2023-05-24T07:37:58.922Z,15.15
2023-05-24T07:40:01.598Z,15.17
2023-05-24T07:42:04.535Z,15.17
2023-05-24T07:44:07.119Z,15.18
2023-05-24T07:46:11.450Z,15.19
2023-05-24T07:48:14.160Z,15.19
2023-05-24T07:50:17.079Z,15.21
2023-05-24T07:52:20.288Z,15.21
2023-05-24T07:54:22.899Z,15.21
2023-05-24T07:56:25.589Z,15.15
2023-05-24T07:58:28.172Z,15.17
2023-05-24T08:00:30.769Z,15.17
2023-05-24T08:02:34.965Z,15.18
2023-05-24T08:04:37.726Z,15.19
2023-05-24T08:06:40.406Z,15.16
2023-05-24T08:08:43.115Z,15.14
2023-05-24T08:10:48.500Z,15.15
2023-05-24T08:12:51.604Z,15.09
2023-05-24T08:14:54.218Z,15.11
2023-05-24T08:16:56.805Z,15.02
2023-05-24T08:19:00.833Z,15.00
2023-05-24T08:21:03.578Z,15.03
2023-05-24T08:23:06.195Z,15.07
2023-05-24T08:25:09.855Z,15.09
2023-05-24T08:27:12.559Z,15.06
2023-05-24T08:29:17.586Z,15.06
2023-05-24T08:31:20.259Z,15.06
2023-05-24T08:33:23.850Z,15.03
2023-05-24T08:35:27.793Z,15.06
2023-05-24T08:37:31.910Z,15.04
2023-05-24T08:39:34.542Z,15.05
2023-05-24T08:41:37.742Z,15.05
2023-05-24T08:43:40.722Z,15.06
2023-05-24T08:45:44.548Z,15.07
2023-05-24T08:47:48.651Z,15.05
2023-05-24T08:49:52.335Z,15.05
2023-05-24T08:51:56.278Z,15.05
2023-05-24T08:54:00.431Z,15.04
2023-05-24T08:56:03.956Z,15.05
2023-05-24T08:58:07.528Z,14.90
2023-05-24T09:00:12.940Z,14.90
2023-05-24T09:02:17.555Z,14.90
2023-05-24T09:04:20.912Z,14.86
2023-05-24T09:06:25.399Z,14.89
2023-05-24T09:08:29.945Z,14.85
2023-05-24T09:10:52.385Z,14.74
2023-05-24T09:12:58.899Z,14.83
2023-05-24T09:15:02.177Z,14.89
2023-05-24T09:17:05.301Z,14.89
2023-05-24T09:19:07.978Z,14.95
2023-05-24T09:21:11.709Z,14.97
2023-05-24T09:23:18.365Z,14.97
2023-05-24T09:25:22.585Z,15.02
2023-05-24T09:27:28.940Z,15.07
2023-05-24T09:29:31.592Z,15.08
2023-05-24T09:31:35.018Z,15.02
2023-05-24T09:33:37.696Z,15.07
2023-05-24T09:35:43.453Z,15.10
2023-05-24T09:37:48.284Z,15.14
2023-05-24T09:39:51.958Z,15.20
2023-05-24T09:41:57.360Z,15.29
2023-05-24T09:43:59.963Z,15.35
2023-05-24T09:46:04.664Z,15.42
2023-05-24T09:48:12.606Z,15.41
2023-05-24T09:50:17.465Z,15.44
2023-05-24T09:52:20.395Z,15.44
2023-05-24T09:54:23.227Z,15.47
2023-05-24T09:56:26.023Z,15.49
2023-05-24T09:58:33.966Z,15.54
2023-05-24T10:00:39.766Z,15.58
2023-05-24T10:02:52.985Z,15.61
2023-05-24T10:05:00.351Z,15.62
2023-05-24T10:07:03.518Z,15.62
2023-05-24T10:09:07.858Z,15.60
2023-05-24T10:11:10.456Z,15.60
2023-05-24T10:13:15.964Z,15.63
2023-05-24T10:15:20.016Z,15.65
2023-05-24T10:17:22.887Z,15.63
2023-05-24T10:19:25.766Z,15.61
2023-05-24T10:21:32.898Z,15.60
2023-05-24T10:23:38.089Z,15.55
2023-05-24T10:25:48.372Z,15.57
2023-05-24T10:27:53.562Z,15.57
2023-05-24T10:30:02.526Z,15.57
2023-05-24T10:32:07.443Z,15.56
2023-05-24T10:34:11.216Z,15.54
2023-05-24T10:36:16.083Z,15.53
2023-05-24T10:38:21.697Z,15.49
2023-05-24T10:40:26.041Z,15.47
2023-05-24T10:42:32.342Z,15.46
2023-05-24T10:44:34.965Z,15.45
2023-05-24T10:46:38.304Z,15.45
2023-05-24T10:48:42.953Z,15.46
2023-05-24T10:50:45.736Z,15.45
2023-05-24T10:52:49.988Z,15.44
2023-05-24T10:55:06.149Z,15.42
2023-05-24T10:57:09.278Z,15.42
2023-05-24T10:59:23.704Z,15.35
2023-05-24T11:01:27.878Z,15.35
2023-05-24T11:03:33.722Z,15.33
2023-05-24T11:05:51.838Z,15.29
2023-05-24T11:08:04.017Z,15.28
2023-05-24T11:10:11.148Z,15.30
2023-05-24T11:12:16.451Z,15.30
2023-05-24T11:14:20.751Z,15.31
2023-05-24T11:16:37.074Z,15.33
2023-05-24T11:18:40.191Z,15.33
2023-05-24T11:20:45.515Z,15.32
2023-05-24T11:22:48.691Z,15.32
2023-05-24T11:24:53.391Z,15.33
2023-05-24T11:26:57.087Z,15.32
2023-05-24T11:29:04.781Z,15.30
2023-05-24T11:31:10.239Z,15.30
2023-05-24T11:33:16.651Z,15.28
2023-05-24T11:35:22.362Z,15.22
2023-05-24T11:37:38.593Z,15.22
2023-05-24T11:39:53.123Z,15.14
2023-05-24T11:41:56.842Z,15.14
2023-05-24T11:44:00.019Z,15.11
2023-05-24T11:46:02.704Z,14.93
2023-05-24T11:48:06.585Z,14.89
2023-05-24T11:50:10.117Z,14.91
2023-05-24T11:52:12.926Z,14.83
2023-05-24T11:54:19.905Z,14.85
2023-05-24T11:56:23.299Z,14.90
2023-05-24T11:58:30.356Z,14.90
2023-05-24T12:00:33.075Z,14.87
2023-05-24T12:02:35.713Z,14.91
2023-05-24T12:04:38.408Z,14.80
2023-05-24T12:06:43.286Z,14.88
2023-05-24T12:08:46.155Z,14.86
2023-05-24T12:10:51.751Z,14.89
2023-05-24T12:12:54.416Z,14.92
2023-05-24T12:14:57.462Z,14.95
2023-05-24T12:17:01.316Z,14.94
2023-05-24T12:19:09.519Z,14.98
2023-05-24T12:21:14.390Z,14.90
2023-05-24T12:23:17.879Z,14.97
2023-05-24T12:25:22.510Z,14.90
2023-05-24T12:27:30.756Z,14.86
2023-05-24T12:29:34.222Z,14.89
2023-05-24T12:31:37.463Z,14.91
2023-05-24T12:33:40.796Z,14.98
2023-05-24T12:35:43.717Z,15.04
2023-05-24T12:37:46.657Z,15.09
2023-05-24T12:39:49.980Z,15.19
2023-05-24T12:41:54.280Z,15.25
2023-05-24T12:43:58.514Z,15.36
2023-05-24T12:46:03.367Z,15.29
2023-05-24T12:48:06.348Z,15.13
2023-05-24T12:50:09.814Z,15.24
2023-05-24T12:52:13.168Z,15.31
2023-05-24T12:54:15.842Z,15.38
2023-05-24T12:56:18.516Z,15.48
2023-05-24T12:58:21.271Z,15.55
2023-05-24T13:00:27.385Z,15.62
2023-05-24T13:02:30.001Z,15.68
2023-05-24T13:04:33.918Z,15.74
2023-05-24T13:06:37.446Z,15.84
2023-05-24T13:08:40.979Z,16.03
2023-05-24T13:10:43.997Z,16.26
2023-05-24T13:12:46.831Z,16.50
2023-05-24T13:14:52.094Z,16.68
2023-05-24T13:16:56.831Z,16.75
2023-05-24T13:18:59.465Z,16.98
2023-05-24T13:21:02.132Z,17.11
2023-05-24T13:23:07.167Z,17.07
2023-05-24T13:25:11.174Z,16.96
2023-05-24T13:27:14.256Z,16.90
2023-05-24T13:31:22.444Z,17.03
2023-05-24T13:33:26.939Z,17.22
2023-05-24T13:35:31.108Z,17.34
2023-05-24T13:37:33.711Z,17.62
2023-05-24T13:39:36.733Z,18.01
2023-05-24T13:41:39.365Z,18.44
2023-05-24T13:43:42.076Z,18.80
2023-05-24T13:45:45.506Z,19.20
2023-05-24T13:47:48.263Z,19.13
2023-05-24T13:49:52.246Z,19.65
2023-05-24T13:51:58.019Z,19.58
2023-05-24T13:54:01.764Z,19.87
2023-05-24T13:56:04.479Z,20.25
2023-05-24T13:58:07.194Z,20.62
2023-05-24T14:00:10.861Z,20.41
2023-05-24T14:02:13.623Z,20.91
2023-05-24T14:04:16.866Z,21.37
2023-05-24T14:06:21.888Z,21.77
2023-05-24T14:08:24.541Z,22.16
2023-05-24T14:10:27.416Z,22.38
2023-05-24T14:12:31.635Z,22.65
2023-05-24T14:16:40.241Z,22.76
2023-05-24T14:18:43.074Z,22.85
2023-05-24T14:20:45.710Z,22.96
2023-05-24T14:22:49.724Z,23.01
2023-05-24T14:24:52.532Z,22.81
2023-05-24T14:26:55.205Z,22.59
2023-05-24T14:28:57.846Z,22.53
2023-05-24T14:31:00.407Z,22.50
2023-05-24T14:33:03.048Z,22.34
2023-05-24T14:35:06.655Z,22.56
2023-05-24T14:37:09.301Z,22.65
2023-05-24T14:39:13.344Z,22.65
2023-05-24T14:41:16.291Z,22.76
2023-05-24T14:43:19.015Z,22.23
2023-05-24T14:45:21.599Z,22.33
2023-05-24T14:47:24.333Z,22.68
2023-05-24T14:49:26.952Z,22.85
2023-05-24T14:51:29.611Z,22.91
2023-05-24T14:53:32.246Z,22.99
2023-05-24T14:55:36.376Z,23.19
2023-05-24T14:57:38.983Z,22.91
2023-05-24T14:59:41.571Z,23.12
2023-05-24T15:01:44.192Z,23.21
2023-05-24T15:03:46.922Z,23.21
2023-05-24T15:05:49.634Z,23.25
2023-05-24T15:07:52.251Z,23.12
2023-05-24T15:09:56.317Z,23.23
2023-05-24T15:12:01.978Z,23.25
2023-05-24T15:14:04.615Z,23.23
2023-05-24T15:16:07.293Z,23.25
2023-05-24T15:18:10.057Z,23.16
2023-05-24T15:20:13.049Z,23.22
2023-05-24T15:22:15.680Z,23.17
2023-05-24T15:24:18.378Z,23.12
2023-05-24T15:26:21.153Z,23.09
2023-05-24T15:28:26.604Z,23.02
2023-05-24T15:30:29.701Z,22.41
2023-05-24T15:32:32.303Z,22.39
2023-05-24T15:34:34.919Z,22.45
2023-05-24T15:36:37.812Z,22.47
2023-05-24T15:38:40.705Z,22.50
2023-05-24T15:40:43.519Z,22.51
2023-05-24T15:42:46.403Z,22.53
2023-05-24T15:44:50.411Z,22.44
2023-05-24T15:46:53.119Z,22.45
2023-05-24T15:48:55.772Z,22.26
2023-05-24T15:51:57.446Z,22.26
2023-05-24T15:53:21.780Z,21.99
2023-05-24T15:55:24.638Z,22.03
2023-05-24T15:57:27.229Z,22.02
2023-05-24T15:59:29.912Z,22.04
2023-05-24T16:01:33.965Z,22.01
2023-05-24T16:03:38.408Z,21.62
2023-05-24T16:05:41.310Z,21.78
2023-05-24T16:07:43.942Z,21.49
2023-05-24T16:09:47.248Z,21.36
2023-05-24T16:11:49.913Z,21.28
2023-05-24T16:13:53.529Z,21.37
2023-05-24T16:15:56.282Z,21.43
2023-05-24T16:18:00.394Z,21.25
2023-05-24T16:20:03.121Z,21.38
2023-05-24T16:22:07.667Z,21.28
2023-05-24T16:24:10.244Z,21.35
2023-05-24T16:26:12.896Z,21.28
2023-05-24T16:28:15.599Z,21.34
2023-05-24T16:30:18.266Z,21.35
2023-05-24T16:32:20.903Z,21.20
2023-05-24T16:34:25.740Z,21.23
2023-05-24T16:36:28.355Z,21.15
2023-05-24T16:38:31.043Z,21.19
2023-05-24T16:40:33.660Z,20.94
2023-05-24T16:42:36.260Z,20.90
2023-05-24T16:44:38.902Z,20.92
2023-05-24T16:46:41.626Z,20.93
2023-05-24T16:48:44.307Z,20.91
2023-05-24T16:50:48.359Z,20.82
2023-05-24T16:52:51.493Z,20.81
2023-05-24T16:54:54.110Z,20.81
2023-05-24T16:56:56.747Z,20.81
2023-05-24T16:58:59.354Z,20.80
2023-05-24T17:01:01.969Z,20.74
2023-05-24T17:03:04.800Z,20.54
2023-05-24T17:05:08.207Z,20.60
2023-05-24T17:07:12.198Z,20.60
2023-05-24T17:09:14.826Z,20.55
2023-05-24T17:11:19.730Z,20.54
2023-05-24T17:13:22.322Z,20.46
2023-05-24T17:15:24.905Z,20.38
2023-05-24T17:17:27.580Z,20.34
2023-05-24T17:19:30.288Z,20.15
2023-05-24T17:21:32.939Z,20.11
2023-05-24T17:23:37.604Z,20.09
2023-05-24T17:25:40.209Z,19.87
2023-05-24T17:27:42.767Z,19.83
2023-05-24T17:29:45.423Z,19.80
2023-05-24T17:31:48.138Z,19.78
2023-05-24T17:33:50.774Z,19.73
2023-05-24T17:35:56.235Z,19.69
2023-05-24T17:37:58.919Z,19.53
2023-05-24T17:40:02.885Z,19.54
2023-05-24T17:42:06.874Z,19.46
2023-05-24T17:44:09.475Z,19.40
2023-05-24T17:46:13.502Z,19.23
2023-05-24T17:48:16.209Z,19.27
2023-05-24T17:50:18.801Z,19.29
2023-05-24T17:52:21.435Z,19.27
2023-05-24T17:54:24.042Z,19.23
2023-05-24T17:56:29.058Z,19.23
2023-05-24T17:58:35.551Z,19.21
2023-05-24T18:00:38.852Z,19.04
2023-05-24T18:02:41.499Z,19.09
2023-05-24T18:04:44.095Z,19.06
2023-05-24T18:06:46.745Z,19.07
2023-05-24T18:08:49.995Z,18.97
2023-05-24T18:10:52.703Z,18.89
2023-05-24T18:12:56.661Z,18.86
2023-05-24T18:14:59.292Z,18.85
2023-05-24T18:17:01.942Z,18.77
2023-05-24T18:19:04.548Z,18.75
2023-05-24T18:21:07.957Z,18.67
2023-05-24T18:23:10.649Z,18.60
2023-05-24T18:25:13.244Z,18.56
2023-05-24T18:27:15.855Z,18.51
2023-05-24T18:29:19.938Z,18.46
2023-05-24T18:31:22.580Z,18.40
2023-05-24T18:33:25.375Z,18.36
2023-05-24T18:35:28.807Z,18.34
2023-05-24T18:37:31.555Z,18.27
2023-05-24T18:39:34.165Z,18.20
2023-05-24T18:41:36.749Z,18.14
2023-05-24T18:43:39.646Z,18.04
2023-05-24T18:45:43.846Z,17.96
2023-05-24T18:47:46.732Z,17.88
2023-05-24T18:49:49.357Z,17.79
2023-05-24T18:51:52.033Z,17.69
2023-05-24T18:53:54.641Z,17.50
2023-05-24T18:55:57.286Z,17.39
2023-05-24T18:57:59.916Z,17.30
2023-05-24T19:00:02.556Z,17.23
2023-05-24T19:02:07.363Z,17.18
2023-05-24T19:04:12.949Z,17.12
2023-05-24T19:06:15.585Z,17.05
2023-05-24T19:08:18.449Z,17.00
2023-05-24T19:10:21.169Z,16.96
2023-05-24T19:12:23.806Z,16.91
2023-05-24T19:14:26.715Z,16.86
2023-05-24T19:16:29.402Z,16.86
2023-05-24T19:18:33.473Z,16.83
2023-05-24T19:20:36.262Z,16.80
2023-05-24T19:22:38.935Z,16.56
2023-05-24T19:24:41.625Z,16.63
2023-05-24T19:26:44.220Z,16.61
2023-05-24T19:28:51.581Z,16.58
2023-05-24T19:30:54.225Z,16.57
2023-05-24T19:32:56.918Z,16.57
2023-05-24T19:35:01.043Z,16.55
2023-05-24T19:37:03.938Z,16.41
2023-05-24T19:39:06.993Z,16.34
2023-05-24T19:41:09.663Z,16.32
2023-05-24T19:43:12.249Z,16.30
2023-05-24T19:45:14.905Z,16.27
2023-05-24T19:47:17.489Z,16.26
2023-05-24T19:49:20.138Z,16.25
2023-05-24T19:51:24.154Z,16.25
2023-05-24T19:53:28.683Z,16.24
2023-05-24T19:55:31.303Z,16.22
2023-05-24T19:57:33.956Z,16.22
2023-05-24T19:59:36.575Z,16.21
2023-05-24T20:01:39.274Z,16.20
2023-05-24T20:03:43.762Z,16.20
2023-05-24T20:05:46.422Z,16.18
2023-05-24T20:07:50.841Z,16.17
2023-05-24T20:09:53.674Z,16.17
2023-05-24T20:11:56.269Z,16.17
2023-05-24T20:13:58.967Z,16.16
2023-05-24T20:16:01.652Z,16.16
2023-05-24T20:18:04.625Z,16.16
2023-05-24T20:20:08.480Z,16.13
2023-05-24T20:22:12.458Z,16.14
2023-05-24T20:24:16.603Z,16.13
2023-05-24T20:26:19.216Z,16.11
2023-05-24T20:28:30.009Z,16.09
2023-05-24T20:30:34.525Z,16.08
2023-05-24T20:32:37.202Z,16.07
2023-05-24T20:34:39.903Z,16.06
2023-05-24T20:36:43.951Z,16.05
2023-05-24T20:38:47.593Z,16.05
2023-05-24T20:40:51.521Z,16.06
2023-05-24T20:42:55.352Z,16.04
2023-05-24T20:44:58.019Z,16.03
2023-05-24T20:47:00.752Z,16.01
2023-05-24T20:49:03.369Z,15.98
2023-05-24T20:51:07.166Z,15.98
2023-05-24T20:53:09.756Z,15.94
2023-05-24T20:55:12.502Z,15.91
2023-05-24T20:57:16.448Z,15.90
2023-05-24T20:59:19.077Z,15.86
2023-05-24T21:01:21.923Z,15.84
2023-05-24T21:03:24.716Z,15.82
2023-05-24T21:05:27.347Z,15.81
2023-05-24T21:07:29.963Z,15.77
2023-05-24T21:09:32.627Z,15.77
2023-05-24T21:11:35.424Z,15.75
2023-05-24T21:13:41.076Z,15.73
2023-05-24T21:15:45.515Z,15.69
2023-05-24T21:17:48.461Z,15.68
2023-05-24T21:19:51.080Z,15.66
2023-05-24T21:21:53.714Z,15.65
2023-05-24T21:23:56.698Z,15.64
2023-05-24T21:25:59.333Z,15.62
2023-05-24T21:28:01.956Z,15.60
2023-05-24T21:30:06.957Z,15.58
2023-05-24T21:32:09.518Z,15.56
2023-05-24T21:34:14.764Z,15.55
2023-05-24T21:36:18.440Z,15.53
2023-05-24T21:38:21.051Z,15.53
2023-05-24T21:40:23.711Z,15.51
2023-05-24T21:42:26.303Z,15.50
2023-05-24T21:44:28.939Z,15.48
2023-05-24T21:46:33.626Z,15.45
2023-05-24T21:48:36.300Z,15.44
2023-05-24T21:50:38.926Z,15.41
2023-05-24T21:52:41.559Z,15.38
2023-05-24T21:54:44.149Z,15.35
2023-05-24T21:56:46.808Z,15.34
2023-05-24T21:58:49.471Z,15.32
2023-05-24T22:00:52.130Z,15.32
2023-05-24T22:02:56.171Z,15.32
2023-05-24T22:04:58.978Z,15.32
2023-05-24T22:07:01.687Z,15.31
2023-05-24T22:09:04.420Z,15.32
2023-05-24T22:11:07.261Z,15.31
2023-05-24T22:13:09.917Z,15.30
2023-05-24T22:15:12.818Z,15.28
2023-05-24T22:17:15.446Z,15.26
2023-05-24T22:19:28.502Z,15.25
2023-05-24T22:21:42.884Z,15.22
2023-05-24T22:23:45.954Z,15.20
2023-05-24T22:25:48.579Z,15.18
2023-05-24T22:27:53.355Z,15.15
2023-05-24T22:29:56.059Z,15.13
2023-05-24T22:31:58.659Z,15.11
2023-05-24T22:34:02.496Z,15.10
2023-05-24T22:36:09.163Z,15.08
2023-05-24T22:38:11.845Z,15.07
2023-05-24T22:40:14.723Z,15.08
2023-05-24T22:42:17.343Z,15.06
2023-05-24T22:44:19.989Z,15.06
2023-05-24T22:46:23.092Z,15.04
2023-05-24T22:48:26.657Z,15.04
2023-05-24T22:50:29.276Z,15.02
2023-05-24T22:52:33.849Z,15.01
2023-05-24T22:54:36.540Z,14.99
2023-05-24T22:56:39.196Z,14.98
2023-05-24T22:58:41.804Z,14.96
2023-05-24T23:00:44.400Z,14.95
2023-05-24T23:02:47.200Z,14.91
2023-05-24T23:04:49.891Z,14.90
2023-05-24T23:06:53.540Z,14.88
2023-05-24T23:08:57.609Z,14.86
2023-05-24T23:11:00.530Z,14.84
2023-05-24T23:13:04.133Z,14.82
2023-05-24T23:15:07.448Z,14.79
2023-05-24T23:17:13.376Z,14.79
2023-05-24T23:19:18.555Z,14.78
2023-05-24T23:21:22.379Z,14.77
2023-05-24T23:23:25.771Z,14.76
2023-05-24T23:25:29.863Z,14.75
2023-05-24T23:27:32.462Z,14.72
2023-05-24T23:29:35.113Z,14.70
2023-05-24T23:31:37.960Z,14.69
2023-05-24T23:33:40.718Z,14.69
2023-05-24T23:35:43.477Z,14.69
2023-05-24T23:37:46.302Z,14.66
2023-05-24T23:39:48.925Z,14.66
2023-05-24T23:41:52.972Z,14.66
2023-05-24T23:43:55.591Z,14.61
2023-05-24T23:45:58.230Z,14.60
2023-05-24T23:48:01.271Z,14.58
2023-05-24T23:50:04.199Z,14.57
2023-05-24T23:52:07.837Z,14.58
2023-05-24T23:54:11.234Z,14.55
2023-05-24T23:56:13.847Z,14.55
2023-05-24T23:58:17.869Z,14.54
